sensor_id;sensor_type;location;lat;lon;timestamp;pressure;altitude;pressure_sealevel;temperature;humidity
53689;BME280;39583;54.682;30.662;2024-01-30T07:47:50;101136.72;;;0.13;100.00
53689;BME280;39583;54.682;30.662;2024-01-30T07:50:18;101134.13;;;0.24;100.00
53689;BME280;39583;54.682;30.662;2024-01-30T07:52:46;101136.72;;;0.37;100.00
53689;BME280;39583;54.682;30.662;2024-01-30T07:55:16;101127.75;;;0.50;100.00
53689;BME280;39583;54.682;30.662;2024-01-30T07:57:44;101128.66;;;0.62;100.00
53689;BME280;39583;54.682;30.662;2024-01-30T08:00:12;101122.16;;;0.66;100.00
53689;BME280;39583;54.682;30.662;2024-01-30T08:02:40;101117.19;;;0.62;100.00
53689;BME280;39583;54.682;30.662;2024-01-30T08:05:08;101121.91;;;0.58;100.00
53689;BME280;39583;54.682;30.662;2024-01-30T08:07:38;101109.75;;;0.67;100.00
53689;BME280;39583;54.682;30.662;2024-01-30T08:10:06;101112.91;;;0.72;100.00
53689;BME280;39583;54.682;30.662;2024-01-30T08:12:34;101101.09;;;0.76;100.00
53689;BME280;39583;54.682;30.662;2024-01-30T08:15:02;101094.00;;;0.87;100.00
53689;BME280;39583;54.682;30.662;2024-01-30T08:17:30;101101.03;;;1.00;100.00
53689;BME280;39583;54.682;30.662;2024-01-30T08:19:58;101096.22;;;1.05;100.00
53689;BME280;39583;54.682;30.662;2024-01-30T08:22:26;101096.94;;;1.07;100.00
53689;BME280;39583;54.682;30.662;2024-01-30T08:24:54;101105.63;;;1.09;100.00
53689;BME280;39583;54.682;30.662;2024-01-30T08:27:22;101106.94;;;1.14;100.00
53689;BME280;39583;54.682;30.662;2024-01-30T08:29:49;101119.25;;;1.27;100.00
53689;BME280;39583;54.682;30.662;2024-01-30T08:32:17;101061.97;;;1.02;100.00
53689;BME280;39583;54.682;30.662;2024-01-30T08:34:46;101114.69;;;1.40;100.00
53689;BME280;39583;54.682;30.662;2024-01-30T08:37:14;101117.84;;;1.34;100.00
53689;BME280;39583;54.682;30.662;2024-01-30T08:39:44;101110.47;;;1.37;100.00
53689;BME280;39583;54.682;30.662;2024-01-30T08:42:12;101114.69;;;1.51;100.00
53689;BME280;39583;54.682;30.662;2024-01-30T08:44:39;101116.38;;;1.52;100.00
53689;BME280;39583;54.682;30.662;2024-01-30T08:47:07;101105.28;;;1.47;100.00
53689;BME280;39583;54.682;30.662;2024-01-30T08:49:35;101103.72;;;1.44;100.00
53689;BME280;39583;54.682;30.662;2024-01-30T08:52:02;101106.72;;;1.40;100.00
53689;BME280;39583;54.682;30.662;2024-01-30T08:54:30;101101.91;;;1.45;100.00
53689;BME280;39583;54.682;30.662;2024-01-30T08:57:00;101102.25;;;1.52;100.00
53689;BME280;39583;54.682;30.662;2024-01-30T08:59:28;101096.59;;;1.45;100.00
53689;BME280;39583;54.682;30.662;2024-01-30T09:01:57;101102.75;;;1.34;100.00
53689;BME280;39583;54.682;30.662;2024-01-30T09:04:39;101103.09;;;1.30;100.00
53689;BME280;39583;54.682;30.662;2024-01-30T09:07:09;101098.41;;;1.22;100.00
53689;BME280;39583;54.682;30.662;2024-01-30T09:09:38;101069.81;;;1.14;100.00
53689;BME280;39583;54.682;30.662;2024-01-30T09:12:08;101094.28;;;1.29;100.00
53689;BME280;39583;54.682;30.662;2024-01-30T09:14:39;101089.09;;;1.16;100.00
53689;BME280;39583;54.682;30.662;2024-01-30T09:17:08;101088.88;;;1.20;100.00
53689;BME280;39583;54.682;30.662;2024-01-30T09:19:36;101083.81;;;1.28;100.00
53689;BME280;39583;54.682;30.662;2024-01-30T09:22:04;101091.03;;;1.37;100.00
53689;BME280;39583;54.682;30.662;2024-01-30T09:24:32;101095.13;;;1.41;100.00
53689;BME280;39583;54.682;30.662;2024-01-30T09:26:59;101078.16;;;1.32;100.00
53689;BME280;39583;54.682;30.662;2024-01-30T09:29:27;101084.91;;;1.36;100.00
53689;BME280;39583;54.682;30.662;2024-01-30T09:31:55;101090.06;;;1.27;100.00
53689;BME280;39583;54.682;30.662;2024-01-30T09:34:22;101095.25;;;1.28;100.00
53689;BME280;39583;54.682;30.662;2024-01-30T09:36:50;101092.25;;;1.33;100.00
53689;BME280;39583;54.682;30.662;2024-01-30T09:39:18;101088.53;;;1.35;100.00
53689;BME280;39583;54.682;30.662;2024-01-30T09:42:00;101086.22;;;1.42;100.00
53689;BME280;39583;54.682;30.662;2024-01-30T09:44:29;101088.03;;;1.41;100.00
53689;BME280;39583;54.682;30.662;2024-01-30T09:46:58;101083.47;;;1.43;100.00
53689;BME280;39583;54.682;30.662;2024-01-30T09:49:34;101074.53;;;1.44;100.00
53689;BME280;39583;54.682;30.662;2024-01-30T09:52:03;101070.66;;;1.37;100.00
53689;BME280;39583;54.682;30.662;2024-01-30T09:54:32;101061.97;;;1.35;100.00
53689;BME280;39583;54.682;30.662;2024-01-30T09:57:04;101062.09;;;1.45;100.00
53689;BME280;39583;54.682;30.662;2024-01-30T09:59:33;101054.97;;;1.57;100.00
53689;BME280;39583;54.682;30.662;2024-01-30T10:02:01;101042.63;;;1.67;100.00
53689;BME280;39583;54.682;30.662;2024-01-30T10:04:30;101038.25;;;1.77;100.00
53689;BME280;39583;54.682;30.662;2024-01-30T10:07:01;101032.78;;;1.90;100.00
53689;BME280;39583;54.682;30.662;2024-01-30T10:09:33;101030.25;;;1.88;100.00
53689;BME280;39583;54.682;30.662;2024-01-30T10:12:02;101033.03;;;1.87;100.00
53689;BME280;39583;54.682;30.662;2024-01-30T10:14:31;101032.41;;;1.94;100.00
53689;BME280;39583;54.682;30.662;2024-01-30T10:16:58;101029.13;;;2.02;100.00
53689;BME280;39583;54.682;30.662;2024-01-30T10:19:26;101029.94;;;2.14;100.00
53689;BME280;39583;54.682;30.662;2024-01-30T10:21:55;101016.50;;;2.15;100.00
53689;BME280;39583;54.682;30.662;2024-01-30T10:24:26;101026.50;;;2.23;100.00
53689;BME280;39583;54.682;30.662;2024-01-30T10:26:54;101026.63;;;2.21;100.00
53689;BME280;39583;54.682;30.662;2024-01-30T10:29:22;101005.22;;;2.02;100.00
53689;BME280;39583;54.682;30.662;2024-01-30T10:32:03;101021.59;;;2.07;100.00
53689;BME280;39583;54.682;30.662;2024-01-30T10:34:32;101024.94;;;1.88;100.00
53689;BME280;39583;54.682;30.662;2024-01-30T10:37:10;101017.88;;;1.66;100.00
53689;BME280;39583;54.682;30.662;2024-01-30T10:39:45;101029.00;;;1.60;100.00
53689;BME280;39583;54.682;30.662;2024-01-30T10:42:17;101022.50;;;1.53;100.00
53689;BME280;39583;54.682;30.662;2024-01-30T10:47:34;101013.66;;;1.64;100.00
53689;BME280;39583;54.682;30.662;2024-01-30T10:50:04;100959.09;;;1.28;100.00
53689;BME280;39583;54.682;30.662;2024-01-30T10:52:32;101003.88;;;1.64;100.00
53689;BME280;39583;54.682;30.662;2024-01-30T10:55:00;101027.59;;;1.88;100.00
53689;BME280;39583;54.682;30.662;2024-01-30T10:57:28;101028.44;;;1.89;100.00
53689;BME280;39583;54.682;30.662;2024-01-30T10:59:58;101022.41;;;1.87;100.00
53689;BME280;39583;54.682;30.662;2024-01-30T11:02:27;100998.59;;;1.53;100.00
53689;BME280;39583;54.682;30.662;2024-01-30T11:04:57;101012.97;;;1.62;100.00
53689;BME280;39583;54.682;30.662;2024-01-30T11:07:28;101013.56;;;1.43;100.00
53689;BME280;39583;54.682;30.662;2024-01-30T11:12:32;101009.88;;;1.34;100.00
53689;BME280;39583;54.682;30.662;2024-01-30T11:15:08;101012.16;;;1.39;100.00
53689;BME280;39583;54.682;30.662;2024-01-30T11:22:51;100992.13;;;1.46;100.00
53689;BME280;39583;54.682;30.662;2024-01-30T11:25:21;100971.00;;;1.44;100.00
53689;BME280;39583;54.682;30.662;2024-01-30T11:27:52;100979.75;;;1.56;100.00
53689;BME280;39583;54.682;30.662;2024-01-30T11:30:28;100975.75;;;1.73;100.00
53689;BME280;39583;54.682;30.662;2024-01-30T11:33:05;100970.91;;;1.78;100.00
53689;BME280;39583;54.682;30.662;2024-01-30T11:35:36;100971.31;;;1.94;100.00
53689;BME280;39583;54.682;30.662;2024-01-30T11:38:05;100968.53;;;2.17;100.00
53689;BME280;39583;54.682;30.662;2024-01-30T11:40:34;100959.41;;;2.30;100.00
53689;BME280;39583;54.682;30.662;2024-01-30T11:43:04;100947.16;;;2.39;100.00
53689;BME280;39583;54.682;30.662;2024-01-30T11:45:34;100953.13;;;2.52;100.00
53689;BME280;39583;54.682;30.662;2024-01-30T11:48:03;100955.44;;;2.66;100.00
53689;BME280;39583;54.682;30.662;2024-01-30T11:50:33;100947.03;;;2.71;100.00
53689;BME280;39583;54.682;30.662;2024-01-30T11:53:01;100945.41;;;2.80;100.00
53689;BME280;39583;54.682;30.662;2024-01-30T11:55:30;100944.84;;;2.86;100.00
53689;BME280;39583;54.682;30.662;2024-01-30T11:58:02;100946.91;;;2.73;100.00
53689;BME280;39583;54.682;30.662;2024-01-30T12:00:30;100944.34;;;2.61;100.00
53689;BME280;39583;54.682;30.662;2024-01-30T12:02:59;100940.59;;;2.64;100.00
53689;BME280;39583;54.682;30.662;2024-01-30T12:05:28;100937.94;;;2.64;100.00
53689;BME280;39583;54.682;30.662;2024-01-30T12:07:57;100945.63;;;2.67;100.00
53689;BME280;39583;54.682;30.662;2024-01-30T12:10:29;100948.16;;;2.69;100.00
53689;BME280;39583;54.682;30.662;2024-01-30T12:12:58;100941.16;;;2.67;100.00
53689;BME280;39583;54.682;30.662;2024-01-30T12:15:26;100938.06;;;2.62;100.00
53689;BME280;39583;54.682;30.662;2024-01-30T12:18:04;100934.63;;;2.51;100.00
53689;BME280;39583;54.682;30.662;2024-01-30T12:20:33;100928.69;;;2.38;100.00
53689;BME280;39583;54.682;30.662;2024-01-30T12:23:01;100931.06;;;2.20;100.00
53689;BME280;39583;54.682;30.662;2024-01-30T12:25:29;100915.16;;;1.99;100.00
53689;BME280;39583;54.682;30.662;2024-01-30T12:27:57;100926.53;;;1.90;100.00
53689;BME280;39583;54.682;30.662;2024-01-30T12:30:25;100919.84;;;1.74;100.00
53689;BME280;39583;54.682;30.662;2024-01-30T12:32:53;100924.09;;;1.66;100.00
53689;BME280;39583;54.682;30.662;2024-01-30T12:35:21;100915.13;;;1.57;100.00
53689;BME280;39583;54.682;30.662;2024-01-30T12:37:49;100925.22;;;1.63;100.00
53689;BME280;39583;54.682;30.662;2024-01-30T12:40:17;100919.28;;;1.71;100.00
53689;BME280;39583;54.682;30.662;2024-01-30T12:42:47;100927.56;;;1.77;100.00
53689;BME280;39583;54.682;30.662;2024-01-30T12:45:18;100928.03;;;1.83;100.00
53689;BME280;39583;54.682;30.662;2024-01-30T12:47:50;100917.16;;;1.86;100.00
53689;BME280;39583;54.682;30.662;2024-01-30T12:50:19;100906.19;;;1.79;100.00
53689;BME280;39583;54.682;30.662;2024-01-30T12:52:47;100900.59;;;1.61;99.14
53689;BME280;39583;54.682;30.662;2024-01-30T12:55:17;100885.56;;;1.18;98.42
53689;BME280;39583;54.682;30.662;2024-01-30T12:57:45;100884.41;;;0.89;98.58
53689;BME280;39583;54.682;30.662;2024-01-30T13:00:14;100896.94;;;0.76;99.16
53689;BME280;39583;54.682;30.662;2024-01-30T13:02:45;100899.72;;;0.63;99.85
53689;BME280;39583;54.682;30.662;2024-01-30T13:05:14;100895.28;;;0.41;99.86
53689;BME280;39583;54.682;30.662;2024-01-30T13:07:42;100897.66;;;0.22;100.00
53689;BME280;39583;54.682;30.662;2024-01-30T13:10:10;100897.50;;;0.12;100.00
53689;BME280;39583;54.682;30.662;2024-01-30T13:12:38;100904.38;;;0.04;100.00
53689;BME280;39583;54.682;30.662;2024-01-30T13:15:06;100899.53;;;-0.03;100.00
53689;BME280;39583;54.682;30.662;2024-01-30T13:17:34;100896.41;;;-0.08;100.00
53689;BME280;39583;54.682;30.662;2024-01-30T13:20:02;100894.69;;;-0.20;100.00
53689;BME280;39583;54.682;30.662;2024-01-30T13:22:38;100892.72;;;-0.29;100.00
53689;BME280;39583;54.682;30.662;2024-01-30T13:25:07;100901.72;;;-0.32;100.00
53689;BME280;39583;54.682;30.662;2024-01-30T13:27:36;100885.81;;;-0.43;100.00
53689;BME280;39583;54.682;30.662;2024-01-30T13:30:08;100900.13;;;-0.45;100.00
53689;BME280;39583;54.682;30.662;2024-01-30T13:32:41;100898.16;;;-0.54;100.00
53689;BME280;39583;54.682;30.662;2024-01-30T13:35:11;100898.50;;;-0.59;100.00
53689;BME280;39583;54.682;30.662;2024-01-30T13:37:39;100894.59;;;-0.66;100.00
53689;BME280;39583;54.682;30.662;2024-01-30T13:40:12;100895.91;;;-0.72;100.00
53689;BME280;39583;54.682;30.662;2024-01-30T13:42:42;100893.72;;;-0.78;100.00
53689;BME280;39583;54.682;30.662;2024-01-30T13:45:10;100898.38;;;-0.81;100.00
53689;BME280;39583;54.682;30.662;2024-01-30T13:47:39;100893.19;;;-0.83;100.00
53689;BME280;39583;54.682;30.662;2024-01-30T13:50:07;100885.50;;;-0.86;100.00
53689;BME280;39583;54.682;30.662;2024-01-30T13:52:35;100889.41;;;-0.92;100.00
53689;BME280;39583;54.682;30.662;2024-01-30T13:55:15;100889.53;;;-0.93;100.00
53689;BME280;39583;54.682;30.662;2024-01-30T13:57:45;100886.78;;;-0.92;100.00
53689;BME280;39583;54.682;30.662;2024-01-30T14:00:16;100885.09;;;-0.93;100.00
53689;BME280;39583;54.682;30.662;2024-01-30T14:02:44;100879.06;;;-0.95;100.00
53689;BME280;39583;54.682;30.662;2024-01-30T14:05:12;100868.50;;;-0.95;100.00
53689;BME280;39583;54.682;30.662;2024-01-30T14:07:43;100872.09;;;-0.96;100.00
53689;BME280;39583;54.682;30.662;2024-01-30T14:10:11;100876.03;;;-1.01;100.00
53689;BME280;39583;54.682;30.662;2024-01-30T14:12:43;100872.88;;;-1.06;100.00
53689;BME280;39583;54.682;30.662;2024-01-30T14:15:11;100862.34;;;-1.19;100.00
53689;BME280;39583;54.682;30.662;2024-01-30T14:17:54;100877.69;;;-1.24;100.00
53689;BME280;39583;54.682;30.662;2024-01-30T14:20:22;100872.22;;;-1.34;100.00
53689;BME280;39583;54.682;30.662;2024-01-30T14:22:50;100869.78;;;-1.37;100.00
53689;BME280;39583;54.682;30.662;2024-01-30T14:25:18;100871.38;;;-1.47;100.00
53689;BME280;39583;54.682;30.662;2024-01-30T14:27:47;100870.03;;;-1.53;100.00
53689;BME280;39583;54.682;30.662;2024-01-30T14:30:15;100872.91;;;-1.56;100.00
53689;BME280;39583;54.682;30.662;2024-01-30T14:32:43;100870.34;;;-1.57;100.00
53689;BME280;39583;54.682;30.662;2024-01-30T14:35:12;100868.03;;;-1.62;100.00
53689;BME280;39583;54.682;30.662;2024-01-30T14:37:40;100874.28;;;-1.63;100.00
53689;BME280;39583;54.682;30.662;2024-01-30T14:40:08;100869.09;;;-1.64;100.00
53689;BME280;39583;54.682;30.662;2024-01-30T14:42:36;100860.13;;;-1.74;100.00
53689;BME280;39583;54.682;30.662;2024-01-30T14:45:06;100885.47;;;-1.72;100.00
53689;BME280;39583;54.682;30.662;2024-01-30T14:47:34;100882.94;;;-1.73;100.00
53689;BME280;39583;54.682;30.662;2024-01-30T14:50:04;100881.47;;;-1.77;100.00
53689;BME280;39583;54.682;30.662;2024-01-30T14:52:36;100888.53;;;-1.78;100.00
53689;BME280;39583;54.682;30.662;2024-01-30T14:55:05;100887.69;;;-1.79;100.00
53689;BME280;39583;54.682;30.662;2024-01-30T14:57:33;100894.66;;;-1.77;100.00
53689;BME280;39583;54.682;30.662;2024-01-30T15:00:02;100884.72;;;-1.74;100.00
53689;BME280;39583;54.682;30.662;2024-01-30T15:02:31;100887.25;;;-1.72;100.00
53689;BME280;39583;54.682;30.662;2024-01-30T15:04:58;100884.50;;;-1.71;100.00
53689;BME280;39583;54.682;30.662;2024-01-30T15:07:27;100882.72;;;-1.70;100.00
53689;BME280;39583;54.682;30.662;2024-01-30T15:10:07;100877.25;;;-1.67;100.00
53689;BME280;39583;54.682;30.662;2024-01-30T15:12:37;100871.97;;;-1.67;100.00
53689;BME280;39583;54.682;30.662;2024-01-30T15:15:07;100878.09;;;-1.67;100.00
53689;BME280;39583;54.682;30.662;2024-01-30T15:17:38;100862.53;;;-1.71;100.00
53689;BME280;39583;54.682;30.662;2024-01-30T15:20:06;100879.56;;;-1.63;100.00
53689;BME280;39583;54.682;30.662;2024-01-30T15:22:34;100886.09;;;-1.56;100.00
53689;BME280;39583;54.682;30.662;2024-01-30T15:25:02;100883.88;;;-1.49;100.00
53689;BME280;39583;54.682;30.662;2024-01-30T15:27:31;100898.34;;;-1.42;100.00
53689;BME280;39583;54.682;30.662;2024-01-30T15:29:58;100893.47;;;-1.35;100.00
53689;BME280;39583;54.682;30.662;2024-01-30T15:32:27;100897.78;;;-1.34;100.00
53689;BME280;39583;54.682;30.662;2024-01-30T15:35:00;100896.19;;;-1.24;100.00
53689;BME280;39583;54.682;30.662;2024-01-30T15:37:30;100893.31;;;-1.21;100.00
53689;BME280;39583;54.682;30.662;2024-01-30T15:39:57;100884.31;;;-1.19;100.00
53689;BME280;39583;54.682;30.662;2024-01-30T15:42:25;100875.56;;;-1.19;100.00
53689;BME280;39583;54.682;30.662;2024-01-30T15:44:53;100878.19;;;-1.19;100.00
53689;BME280;39583;54.682;30.662;2024-01-30T15:47:21;100869.41;;;-1.20;100.00
53689;BME280;39583;54.682;30.662;2024-01-30T15:49:49;100870.25;;;-1.19;100.00
53689;BME280;39583;54.682;30.662;2024-01-30T15:52:17;100876.38;;;-1.19;100.00
53689;BME280;39583;54.682;30.662;2024-01-30T15:54:46;100873.66;;;-1.17;100.00
53689;BME280;39583;54.682;30.662;2024-01-30T15:57:14;100873.56;;;-1.15;100.00
53689;BME280;39583;54.682;30.662;2024-01-30T15:59:42;100864.66;;;-1.14;100.00
53689;BME280;39583;54.682;30.662;2024-01-30T16:02:10;100868.03;;;-1.12;100.00
53689;BME280;39583;54.682;30.662;2024-01-30T16:04:37;100868.03;;;-1.12;100.00
53689;BME280;39583;54.682;30.662;2024-01-30T16:07:05;100875.84;;;-1.11;100.00
53689;BME280;39583;54.682;30.662;2024-01-30T16:09:33;100872.88;;;-1.06;100.00
53689;BME280;39583;54.682;30.662;2024-01-30T16:12:01;100879.75;;;-1.04;100.00
53689;BME280;39583;54.682;30.662;2024-01-30T16:14:30;100866.44;;;-1.02;100.00
53689;BME280;39583;54.682;30.662;2024-01-30T16:16:58;100871.59;;;-1.01;100.00
53689;BME280;39583;54.682;30.662;2024-01-30T16:19:33;100871.38;;;-0.98;100.00
53689;BME280;39583;54.682;30.662;2024-01-30T16:22:07;100876.44;;;-0.95;100.00
53689;BME280;39583;54.682;30.662;2024-01-30T16:24:39;100869.34;;;-0.94;100.00
53689;BME280;39583;54.682;30.662;2024-01-30T16:27:07;100871.97;;;-0.94;100.00
53689;BME280;39583;54.682;30.662;2024-01-30T16:29:38;100877.28;;;-0.94;100.00
53689;BME280;39583;54.682;30.662;2024-01-30T16:32:27;100870.28;;;-0.95;100.00
53689;BME280;39583;54.682;30.662;2024-01-30T16:34:59;100880.03;;;-0.96;100.00
53689;BME280;39583;54.682;30.662;2024-01-30T16:37:30;100871.38;;;-0.98;100.00
53689;BME280;39583;54.682;30.662;2024-01-30T16:39:58;100870.75;;;-1.01;100.00
53689;BME280;39583;54.682;30.662;2024-01-30T16:42:27;100869.06;;;-1.02;100.00
53689;BME280;39583;54.682;30.662;2024-01-30T16:44:54;100863.66;;;-1.01;100.00
53689;BME280;39583;54.682;30.662;2024-01-30T16:47:22;100867.88;;;-0.98;100.00
53689;BME280;39583;54.682;30.662;2024-01-30T16:49:49;100861.75;;;-0.99;100.00
53689;BME280;39583;54.682;30.662;2024-01-30T16:52:18;100851.28;;;-1.00;100.00
53689;BME280;39583;54.682;30.662;2024-01-30T16:54:47;100858.50;;;-1.02;100.00
53689;BME280;39583;54.682;30.662;2024-01-30T16:57:15;100867.38;;;-1.03;100.00
53689;BME280;39583;54.682;30.662;2024-01-30T16:59:43;100872.44;;;-1.00;100.00
53689;BME280;39583;54.682;30.662;2024-01-30T17:02:11;100872.22;;;-0.97;100.00
53689;BME280;39583;54.682;30.662;2024-01-30T17:04:39;100870.81;;;-0.90;100.00
53689;BME280;39583;54.682;30.662;2024-01-30T17:07:07;100863.28;;;-0.83;100.00
53689;BME280;39583;54.682;30.662;2024-01-30T17:09:35;100863.88;;;-0.80;100.00
53689;BME280;39583;54.682;30.662;2024-01-30T17:12:03;100863.03;;;-0.80;100.00
53689;BME280;39583;54.682;30.662;2024-01-30T17:14:31;100847.97;;;-0.91;100.00
53689;BME280;39583;54.682;30.662;2024-01-30T17:17:00;100861.47;;;-0.83;100.00
53689;BME280;39583;54.682;30.662;2024-01-30T17:19:39;100865.41;;;-0.88;100.00
53689;BME280;39583;54.682;30.662;2024-01-30T17:22:07;100850.72;;;-0.93;100.00
53689;BME280;39583;54.682;30.662;2024-01-30T17:24:36;100851.66;;;-0.94;100.00
53689;BME280;39583;54.682;30.662;2024-01-30T17:27:16;100842.94;;;-1.07;100.00
53689;BME280;39583;54.682;30.662;2024-01-30T17:29:44;100848.03;;;-1.04;100.00
53689;BME280;39583;54.682;30.662;2024-01-30T17:32:12;100850.44;;;-1.01;100.00
53689;BME280;39583;54.682;30.662;2024-01-30T17:34:40;100848.88;;;-1.03;100.00
53689;BME280;39583;54.682;30.662;2024-01-30T17:37:08;100844.75;;;-1.07;100.00
53689;BME280;39583;54.682;30.662;2024-01-30T17:39:36;100845.31;;;-1.15;100.00
53689;BME280;39583;54.682;30.662;2024-01-30T17:42:04;100843.00;;;-1.20;100.00
53689;BME280;39583;54.682;30.662;2024-01-30T17:44:32;100837.22;;;-1.25;100.00
53689;BME280;39583;54.682;30.662;2024-01-30T17:47:04;100827.81;;;-1.29;100.00
53689;BME280;39583;54.682;30.662;2024-01-30T17:49:34;100830.59;;;-1.30;100.00
53689;BME280;39583;54.682;30.662;2024-01-30T17:52:02;100836.16;;;-1.35;100.00
53689;BME280;39583;54.682;30.662;2024-01-30T17:54:30;100827.41;;;-1.35;100.00
53689;BME280;39583;54.682;30.662;2024-01-30T17:56:58;100831.63;;;-1.33;100.00
53689;BME280;39583;54.682;30.662;2024-01-30T17:59:26;100820.94;;;-1.31;100.00
53689;BME280;39583;54.682;30.662;2024-01-30T18:01:54;100828.97;;;-1.33;100.00
53689;BME280;39583;54.682;30.662;2024-01-30T18:04:22;100828.25;;;-1.35;100.00
53689;BME280;39583;54.682;30.662;2024-01-30T18:06:51;100826.44;;;-1.34;100.00
53689;BME280;39583;54.682;30.662;2024-01-30T18:09:24;100831.63;;;-1.33;100.00
53689;BME280;39583;54.682;30.662;2024-01-30T18:11:54;100835.09;;;-1.32;100.00
53689;BME280;39583;54.682;30.662;2024-01-30T18:14:22;100829.94;;;-1.34;100.00
53689;BME280;39583;54.682;30.662;2024-01-30T18:16:50;100837.56;;;-1.29;100.00
53689;BME280;39583;54.682;30.662;2024-01-30T18:19:18;100829.81;;;-1.32;100.00
53689;BME280;39583;54.682;30.662;2024-01-30T18:21:46;100829.09;;;-1.34;100.00
53689;BME280;39583;54.682;30.662;2024-01-30T18:24:14;100833.31;;;-1.32;100.00
53689;BME280;39583;54.682;30.662;2024-01-30T18:26:42;100831.19;;;-1.27;100.00
53689;BME280;39583;54.682;30.662;2024-01-30T18:29:09;100835.53;;;-1.26;100.00
53689;BME280;39583;54.682;30.662;2024-01-30T18:31:37;100823.53;;;-1.19;100.00
53689;BME280;39583;54.682;30.662;2024-01-30T18:34:10;100818.16;;;-1.17;100.00
53689;BME280;39583;54.682;30.662;2024-01-30T18:36:37;100812.97;;;-1.19;100.00
53689;BME280;39583;54.682;30.662;2024-01-30T18:39:08;100817.44;;;-1.32;100.00
53689;BME280;39583;54.682;30.662;2024-01-30T18:41:37;100813.03;;;-1.44;100.00
53689;BME280;39583;54.682;30.662;2024-01-30T18:44:05;100818.16;;;-1.54;100.00
